createdAt,value
2019-02-08T00:01:49.179Z,98381.78
2019-02-08T00:05:55.031Z,98383.68
2019-02-08T00:10:00.925Z,98384.08
2019-02-08T00:14:06.729Z,98385.03
2019-02-08T00:18:13.189Z,98381.12
2019-02-08T00:22:18.874Z,98379.72
2019-02-08T00:26:24.652Z,98379.53
2019-02-08T00:30:31.145Z,98374.14
2019-02-08T00:34:36.799Z,98377.02
2019-02-08T00:38:43.036Z,98382.73
2019-02-08T00:42:48.796Z,98379.27
2019-02-08T00:46:54.817Z,98381.19
2019-02-08T00:51:00.513Z,98381.55
2019-02-08T00:55:09.915Z,98377.50
2019-02-08T00:59:15.588Z,98385.77
2019-02-08T01:03:21.308Z,98398.31
2019-02-08T01:07:27.053Z,98392.34
2019-02-08T01:11:32.749Z,98402.69
2019-02-08T01:15:38.613Z,98412.31
2019-02-08T01:19:44.300Z,98420.84
2019-02-08T01:23:50.460Z,98414.27
2019-02-08T01:27:56.331Z,98421.16
2019-02-08T01:32:01.992Z,98419.05
2019-02-08T01:36:07.672Z,98429.50
2019-02-08T01:40:17.663Z,98434.06
2019-02-08T01:44:23.353Z,98430.66
2019-02-08T01:48:29.070Z,98426.77
2019-02-08T01:52:34.735Z,98421.75
2019-02-08T01:56:40.414Z,98421.91
2019-02-08T02:00:46.483Z,98420.25
2019-02-08T02:04:52.305Z,98424.17
2019-02-08T02:08:58.059Z,98433.97
2019-02-08T02:13:04.779Z,98427.78
2019-02-08T02:17:10.468Z,98424.06
2019-02-08T02:21:16.218Z,98422.13
2019-02-08T02:25:22.645Z,98420.70
2019-02-08T02:29:29.457Z,98414.64
2019-02-08T02:33:35.245Z,98413.51
2019-02-08T02:37:40.995Z,98409.22
2019-02-08T02:41:46.745Z,98411.06
2019-02-08T02:45:52.498Z,98408.33
2019-02-08T02:49:58.259Z,98406.95
2019-02-08T02:54:05.337Z,98401.03
2019-02-08T02:58:11.167Z,98407.78
2019-02-08T03:02:16.909Z,98412.06
2019-02-08T03:06:23.524Z,98417.55
2019-02-08T03:10:29.538Z,98413.72
2019-02-08T03:14:35.235Z,98406.17
2019-02-08T03:18:40.999Z,98404.66
2019-02-08T03:22:47.577Z,98402.16
2019-02-08T03:26:53.283Z,98396.42
2019-02-08T03:30:59.014Z,98394.36
2019-02-08T03:35:09.008Z,98407.83
2019-02-08T03:39:14.713Z,98400.17
2019-02-08T03:43:20.388Z,98395.30
2019-02-08T03:47:26.083Z,98390.72
2019-02-08T03:51:31.752Z,98398.56
2019-02-08T03:55:38.929Z,98392.41
2019-02-08T03:59:44.597Z,98395.54
2019-02-08T04:03:51.152Z,98390.81
2019-02-08T04:07:57.224Z,98390.64
2019-02-08T04:12:02.895Z,98387.98
2019-02-08T04:16:08.656Z,98404.22
2019-02-08T04:20:18.547Z,98400.17
2019-02-08T04:24:29.899Z,98409.64
2019-02-08T04:28:31.668Z,98399.06
2019-02-08T04:32:37.333Z,98398.88
2019-02-08T04:36:43.018Z,98395.42
2019-02-08T04:40:48.767Z,98396.62
2019-02-08T04:44:54.444Z,98416.30
2019-02-08T04:49:00.135Z,98405.06
2019-02-08T04:53:06.019Z,98411.66
2019-02-08T04:57:11.703Z,98411.30
2019-02-08T05:01:17.486Z,98412.02
2019-02-08T05:05:23.171Z,98412.97
2019-02-08T05:09:28.866Z,98421.83
2019-02-08T05:13:34.549Z,98413.38
2019-02-08T05:17:40.380Z,98416.69
2019-02-08T05:21:46.359Z,98411.25
2019-02-08T05:25:52.090Z,98411.62
2019-02-08T05:29:57.761Z,98405.27
2019-02-08T05:34:03.447Z,98400.78
2019-02-08T05:38:09.354Z,98397.53
2019-02-08T05:42:15.022Z,98397.64
2019-02-08T05:46:20.727Z,98395.84
2019-02-08T05:50:29.130Z,98384.17
2019-02-08T05:54:34.799Z,98390.91
2019-02-08T05:58:40.476Z,98388.80
2019-02-08T06:02:46.631Z,98395.89
2019-02-08T06:06:54.107Z,98390.58
2019-02-08T06:11:00.005Z,98407.56
2019-02-08T06:15:11.510Z,98404.79
2019-02-08T06:19:17.267Z,98410.48
2019-02-08T06:23:23.012Z,98417.77
2019-02-08T06:27:28.698Z,98421.20
2019-02-08T06:31:34.406Z,98423.20
2019-02-08T06:35:40.152Z,98430.50
2019-02-08T06:39:45.910Z,98428.77
2019-02-08T06:43:52.767Z,98425.55
2019-02-08T06:47:58.674Z,98421.11
2019-02-08T06:52:04.423Z,98414.85
2019-02-08T06:56:11.843Z,98412.88
2019-02-08T07:00:25.324Z,98414.59
2019-02-08T07:04:38.457Z,98413.27
2019-02-08T07:08:51.340Z,98419.59
2019-02-08T07:12:58.736Z,98421.75
2019-02-08T07:17:11.799Z,98426.79
2019-02-08T07:21:28.067Z,98442.39
2019-02-08T07:25:38.055Z,98446.77
2019-02-08T07:29:48.143Z,98443.38
2019-02-08T07:33:55.784Z,98438.91
2019-02-08T07:38:03.440Z,98451.27
2019-02-08T07:42:11.197Z,98442.08
2019-02-08T07:46:18.743Z,98451.00
2019-02-08T07:50:38.264Z,98448.69
2019-02-08T07:54:48.559Z,98451.98
2019-02-08T07:58:56.115Z,98444.47
2019-02-08T08:03:18.397Z,98441.58
2019-02-08T08:07:32.361Z,98446.03
2019-02-08T08:11:45.978Z,98449.82
2019-02-08T08:15:59.810Z,98439.78
2019-02-08T08:20:17.643Z,98444.83
2019-02-08T08:24:29.786Z,98435.37
2019-02-08T08:28:37.247Z,98442.89
2019-02-08T08:32:47.499Z,98426.10
2019-02-08T08:37:09.613Z,98425.70
2019-02-08T08:42:04.859Z,98440.54
2019-02-08T08:46:40.550Z,98439.46
2019-02-08T08:51:10.363Z,98439.46
2019-02-08T08:55:47.678Z,98439.64
2019-02-08T09:00:52.774Z,98446.05
2019-02-08T09:05:18.214Z,98435.62
2019-02-08T09:09:56.636Z,98420.23
2019-02-08T09:14:15.458Z,98416.44
2019-02-08T09:19:06.630Z,98404.30
2019-02-08T09:23:28.091Z,98396.61
2019-02-08T09:28:08.538Z,98396.27
2019-02-08T09:32:41.166Z,98391.47
2019-02-08T09:37:16.900Z,98383.13
2019-02-08T09:41:32.690Z,98385.20
2019-02-08T09:46:08.622Z,98379.85
2019-02-08T09:50:39.954Z,98386.70
2019-02-08T09:55:12.218Z,98388.22
2019-02-08T09:59:58.107Z,98386.75
2019-02-08T10:04:47.870Z,98386.98
2019-02-08T10:09:37.879Z,98388.16
2019-02-08T10:14:19.912Z,98386.22
2019-02-08T10:18:51.343Z,98395.94
2019-02-08T10:23:19.322Z,98393.44
2019-02-08T10:28:04.328Z,98393.66
2019-02-08T10:32:47.896Z,98379.45
2019-02-08T10:37:26.376Z,98373.75
2019-02-08T10:42:01.852Z,98379.03
2019-02-08T10:46:37.782Z,98371.72
2019-02-08T10:51:06.024Z,98373.81
2019-02-08T10:55:52.346Z,98368.71
2019-02-08T11:06:00.112Z,98340.80
2019-02-08T11:10:40.453Z,98335.34
2019-02-08T11:14:58.886Z,98323.20
2019-02-08T11:19:19.229Z,98316.47
2019-02-08T11:23:24.921Z,98313.99
2019-02-08T11:27:30.691Z,98308.27
2019-02-08T11:31:36.472Z,98311.63
2019-02-08T11:35:42.167Z,98301.53
2019-02-08T11:39:48.876Z,98293.64
2019-02-08T11:43:54.596Z,98288.30
2019-02-08T11:48:00.365Z,98276.38
2019-02-08T11:52:06.275Z,98278.36
2019-02-08T11:56:12.965Z,98275.53
2019-02-08T12:00:29.596Z,98275.59
2019-02-08T12:04:35.365Z,98261.98
2019-02-08T12:08:41.069Z,98256.06
2019-02-08T12:12:46.798Z,98243.41
2019-02-08T12:16:52.493Z,98235.81
2019-02-08T12:20:58.230Z,98244.45
2019-02-08T12:25:05.165Z,98246.99
2019-02-08T12:29:11.152Z,98230.25
2019-02-08T12:33:16.911Z,98227.78
2019-02-08T12:37:22.579Z,98208.36
2019-02-08T12:41:28.286Z,98203.29
2019-02-08T13:39:04.544Z,98130.98
2019-02-08T13:43:10.344Z,98120.69
2019-02-08T13:47:16.190Z,98125.73
2019-02-08T13:51:21.874Z,98117.14
2019-02-08T13:55:28.678Z,98112.11
2019-02-08T13:59:34.353Z,98084.52
2019-02-08T14:03:40.083Z,98087.56
2019-02-08T14:07:45.779Z,98084.99
2019-02-08T14:11:51.486Z,98082.04
2019-02-08T14:15:57.890Z,98073.94
2019-02-08T14:20:05.093Z,98062.34
2019-02-08T14:24:10.861Z,98066.09
2019-02-08T14:28:16.554Z,98063.14
2019-02-08T14:32:22.278Z,98043.77
2019-02-08T14:36:28.054Z,98052.39
2019-02-08T14:40:33.875Z,98032.17
2019-02-08T14:44:40.803Z,98033.94
2019-02-08T14:48:46.668Z,98025.94
2019-02-08T14:52:53.074Z,98026.30
2019-02-08T14:56:58.796Z,98022.36
2019-02-08T15:01:04.692Z,98019.67
2019-02-08T15:05:14.096Z,98014.98
2019-02-08T15:09:20.256Z,98009.02
2019-02-08T15:13:25.943Z,98004.63
2019-02-08T15:17:31.629Z,97994.80
2019-02-08T15:21:37.353Z,97986.06
2019-02-08T15:25:46.145Z,97977.33
2019-02-08T15:29:51.855Z,97975.56
2019-02-08T15:33:57.574Z,97976.58
2019-02-08T15:38:03.897Z,97970.83
2019-02-08T15:42:12.355Z,97969.92
2019-02-08T15:46:18.142Z,97970.18
2019-02-08T15:50:24.090Z,97967.03
2019-02-08T15:54:30.996Z,97960.59
2019-02-08T15:58:36.968Z,97954.80
2019-02-08T16:02:44.783Z,97948.34
2019-02-08T16:06:51.978Z,97938.92
2019-02-08T16:10:57.810Z,97927.79
2019-02-08T16:15:05.082Z,97930.19
2019-02-08T16:19:11.371Z,97924.16
2019-02-08T16:23:20.209Z,97921.37
2019-02-08T16:27:25.927Z,97916.62
2019-02-08T16:31:31.687Z,97924.24
2019-02-08T16:35:37.595Z,97921.88
2019-02-08T16:39:45.463Z,97918.55
2019-02-08T16:43:51.243Z,97919.33
2019-02-08T16:47:57.727Z,97915.33
2019-02-08T16:52:03.682Z,97914.22
2019-02-08T16:56:10.465Z,97908.45
2019-02-08T17:00:23.375Z,97906.40
2019-02-08T17:04:29.171Z,97908.10
2019-02-08T17:08:34.856Z,97901.64
2019-02-08T17:12:40.726Z,97900.97
2019-02-08T17:16:46.560Z,97898.07
2019-02-08T17:20:52.383Z,97889.08
2019-02-08T17:24:58.086Z,97891.61
2019-02-08T17:29:03.771Z,97897.72
2019-02-08T17:33:10.583Z,97895.85
2019-02-08T17:37:16.325Z,97897.20
2019-02-08T17:41:22.168Z,97891.48
2019-02-08T17:45:28.139Z,97890.34
2019-02-08T17:49:33.841Z,97884.39
2019-02-08T17:53:39.523Z,97886.15
2019-02-08T17:57:45.289Z,97888.20
2019-02-08T18:01:50.998Z,97887.27
2019-02-08T18:05:57.161Z,97886.55
2019-02-08T18:10:02.917Z,97881.20
2019-02-08T18:14:08.797Z,97882.82
2019-02-08T18:18:18.192Z,97876.61
2019-02-08T18:22:23.892Z,97871.30
2019-02-08T18:26:29.670Z,97865.66
2019-02-08T18:30:35.682Z,97871.78
2019-02-08T18:34:41.336Z,97883.94
2019-02-08T18:38:47.015Z,97872.00
2019-02-08T18:42:53.030Z,97864.16
2019-02-08T18:46:58.721Z,97867.81
2019-02-08T18:51:04.614Z,97866.27
2019-02-08T18:55:10.356Z,97863.31
2019-02-08T18:59:16.068Z,97854.34
2019-02-08T19:08:40.807Z,97853.22
2019-02-08T19:12:46.493Z,97847.36
2019-02-08T19:16:52.265Z,97845.92
2019-02-08T19:20:58.048Z,97848.69
2019-02-08T19:25:05.558Z,97837.86
2019-02-08T19:29:11.312Z,97826.55
2019-02-08T19:33:17.121Z,97817.50
2019-02-08T19:37:22.828Z,97827.62
2019-02-08T19:41:28.500Z,97817.19
2019-02-08T19:45:34.662Z,97811.03
2019-02-08T19:49:40.407Z,97798.33
2019-02-08T19:53:46.109Z,97797.62
2019-02-08T19:57:52.386Z,97783.41
2019-02-08T20:01:58.162Z,97785.47
2019-02-08T20:06:04.183Z,97784.20
2019-02-08T20:10:17.400Z,97786.91
2019-02-08T20:14:23.219Z,97785.44
2019-02-08T20:18:28.958Z,97773.89
2019-02-08T20:22:34.729Z,97773.89
2019-02-08T20:26:40.551Z,97769.99
2019-02-08T20:30:46.343Z,97769.15
2019-02-08T20:34:52.109Z,97759.48
2019-02-08T20:38:57.785Z,97760.10
2019-02-08T20:43:03.618Z,97761.83
2019-02-08T20:47:09.383Z,97762.08
2019-02-08T20:51:15.208Z,97752.19
2019-02-08T20:55:22.325Z,97743.63
2019-02-08T20:59:28.285Z,97738.75
2019-02-08T21:03:34.057Z,97734.75
2019-02-08T21:07:39.746Z,97735.95
2019-02-08T21:11:45.489Z,97725.19
2019-02-08T21:15:51.227Z,97724.00
2019-02-08T21:19:56.921Z,97711.98
2019-02-08T21:24:02.767Z,97704.75
2019-02-08T21:28:09.129Z,97701.16
2019-02-08T21:32:14.808Z,97696.03
2019-02-08T21:36:20.479Z,97683.72
2019-02-08T21:40:30.842Z,97684.02
2019-02-08T21:44:36.547Z,97689.92
2019-02-08T21:48:42.342Z,97676.80
2019-02-08T21:52:48.031Z,97671.87
2019-02-08T21:56:53.704Z,97674.81
2019-02-08T22:00:59.662Z,97673.92
2019-02-08T22:05:08.641Z,97655.43
2019-02-08T22:09:15.722Z,97655.03
2019-02-08T22:13:21.412Z,97658.36
2019-02-08T22:17:27.168Z,97658.08
2019-02-08T22:21:32.973Z,97646.79
2019-02-08T22:25:39.074Z,97645.63
2019-02-08T22:29:44.870Z,97634.80
2019-02-08T22:33:50.553Z,97630.98
2019-02-08T22:37:56.293Z,97638.96
2019-02-08T22:42:01.975Z,97632.03
2019-02-08T22:46:08.652Z,97626.73
2019-02-08T22:50:16.547Z,97625.86
2019-02-08T22:54:22.232Z,97630.08
2019-02-08T22:58:27.891Z,97636.59
2019-02-08T23:02:35.293Z,97639.34
2019-02-08T23:06:44.954Z,97645.59
2019-02-08T23:11:16.098Z,97638.47
2019-02-08T23:15:22.072Z,97640.18
2019-02-08T23:19:27.752Z,97637.89
2019-02-08T23:23:33.441Z,97627.36
2019-02-08T23:27:39.695Z,97633.55
2019-02-08T23:31:45.654Z,97625.97
2019-02-08T23:35:51.469Z,97619.55
2019-02-08T23:39:57.151Z,97613.25
2019-02-08T23:44:02.848Z,97601.07
2019-02-08T23:48:08.825Z,97583.50
2019-02-08T23:52:14.517Z,97578.92
2019-02-08T23:56:20.213Z,97586.33
